Time;durP1;ratioP1;P1;durP2;ratioP2;P2;SDS_P1;SDS_P2;PMS_P1;PMS_P2;Temp;Humidity;BMP_temperature;BMP_pressure;BME280_temperature;BME280_humidity;BME280_pressure;Samples;Min_cycle;Max_cycle;Signal;HPM_P1;HPM_P2
2022/01/24 00:01:57;;;;;;;31.27;16.88;;;2.20;99.90;;;;;;5125590;28;20396;-88
2022/01/24 00:04:25;;;;;;;27.25;15.65;;;2.10;99.90;;;;;;5125102;28;20223;-89
2022/01/24 00:06:53;;;;;;;23.38;13.88;;;2.00;99.90;;;;;;5124858;28;20513;-88
2022/01/24 00:09:20;;;;;;;22.20;14.93;;;1.90;99.90;;;;;;5107290;28;20197;-87
2022/01/24 00:27:26;;;;;;;29.45;16.10;;;2.30;99.90;;;;;;5124860;28;20540;-89
2022/01/24 00:29:53;;;;;;;28.95;15.95;;;2.30;99.90;;;;;;5106636;28;20201;-88
2022/01/24 00:32:20;;;;;;;27.17;15.60;;;2.40;99.90;;;;;;5107761;28;20355;-87
2022/01/24 00:34:48;;;;;;;25.92;15.77;;;2.40;99.90;;;;;;5126951;28;20261;-87
2022/01/24 00:37:16;;;;;;;32.35;16.45;;;2.40;99.90;;;;;;5108732;28;20283;-89
2022/01/24 00:39:43;;;;;;;25.52;16.48;;;2.30;99.90;;;;;;5109287;28;20200;-87
2022/01/24 00:42:52;;;;;;;31.50;16.25;;;2.30;99.90;;;;;;5126529;28;20536;-88
2022/01/24 00:45:11;;;;;;;25.33;16.20;;;2.50;99.90;;;;;;5123831;28;20205;-88
2022/01/24 00:48:03;;;;;;;30.65;18.13;;;2.40;99.90;;;;;;5107697;28;20222;-87
2022/01/24 00:56:07;;;;;;;20.33;12.63;;;2.60;99.90;;;;;;5124792;28;20206;-87
2022/01/24 00:58:34;;;;;;;23.88;17.52;;;2.80;99.90;;;;;;5124615;28;20227;-87
2022/01/24 01:01:03;;;;;;;25.63;15.93;;;2.70;99.90;;;;;;5105969;28;20197;-89
2022/01/24 01:03:30;;;;;;;26.35;16.05;;;2.60;99.90;;;;;;5108083;28;20185;-88
2022/01/24 01:06:06;;;;;;;23.02;14.10;;;2.50;99.90;;;;;;5108085;28;20220;-88
2022/01/24 01:19:40;;;;;;;29.13;17.75;;;2.30;99.90;;;;;;5129982;28;20190;-86
2022/01/24 01:22:08;;;;;;;23.00;12.80;;;2.40;99.90;;;;;;5130009;28;20205;-87
2022/01/24 01:24:41;;;;;;;17.00;11.18;;;2.60;99.90;;;;;;5112317;28;20198;-88
2022/01/24 01:27:15;;;;;;;20.90;13.20;;;2.50;99.90;;;;;;5112426;28;20190;-88
2022/01/24 01:57:01;;;;;;;21.33;15.27;;;2.90;99.90;;;;;;5127220;28;20200;-86
2022/01/24 01:59:29;;;;;;;26.88;15.93;;;3.00;99.90;;;;;;5109041;28;20197;-87
2022/01/24 02:01:59;;;;;;;29.92;18.08;;;2.90;99.90;;;;;;5127302;28;20492;-86
2022/01/24 02:04:27;;;;;;;27.92;16.25;;;2.80;99.90;;;;;;5108647;28;20443;-86
2022/01/24 02:06:55;;;;;;;32.00;17.35;;;2.70;99.90;;;;;;5126245;28;20392;-85
2022/01/24 02:09:29;;;;;;;28.10;16.55;;;2.60;99.90;;;;;;5107624;28;20411;-86
2022/01/24 02:11:57;;;;;;;25.17;15.50;;;2.50;99.90;;;;;;5106987;28;20481;-84
2022/01/24 02:14:32;;;;;;;38.10;19.63;;;2.60;99.90;;;;;;5107620;28;20214;-85
2022/01/24 02:17:05;;;;;;;31.73;18.20;;;2.60;99.90;;;;;;5126021;28;20197;-85
2022/01/24 02:19:50;;;;;;;26.10;16.75;;;2.80;99.90;;;;;;5107443;28;20390;-85
2022/01/24 02:22:43;;;;;;;27.58;17.73;;;3.00;99.90;;;;;;5107049;28;20492;-85
2022/01/24 02:25:16;;;;;;;33.88;16.63;;;3.00;99.90;;;;;;5102552;28;20204;-85
2022/01/24 02:27:54;;;;;;;27.92;17.10;;;3.00;99.90;;;;;;5110772;28;20223;-84
2022/01/24 02:33:10;;;;;;;35.95;19.63;;;2.90;99.90;;;;;;5104277;28;20187;-85
2022/01/24 02:35:38;;;;;;;40.15;20.83;;;2.90;99.90;;;;;;5086186;28;20206;-85
2022/01/24 02:38:14;;;;;;;27.60;18.83;;;3.10;99.90;;;;;;5103689;28;20210;-84
2022/01/24 02:40:42;;;;;;;29.90;20.45;;;2.90;99.90;;;;;;5104045;28;20206;-85
2022/01/24 02:48:23;;;;;;;32.63;18.77;;;3.30;99.90;;;;;;5103627;28;20209;-85
2022/01/24 02:48:54;;;;;;;31.05;15.68;;;3.40;99.90;;;;;;5103206;28;20295;-84
2022/01/24 02:53:49;;;;;;;20.58;12.82;;;3.20;99.90;;;;;;5104776;28;20206;-85
2022/01/24 02:56:16;;;;;;;16.85;11.63;;;3.10;99.90;;;;;;5086014;28;20488;-84
2022/01/24 02:58:43;;;;;;;20.48;13.70;;;2.80;99.90;;;;;;5088403;28;20194;-90
2022/01/24 03:01:11;;;;;;;25.48;13.52;;;2.70;99.90;;;;;;5107942;28;20192;-87
2022/01/24 03:03:40;;;;;;;34.08;15.15;;;2.70;99.90;;;;;;5108909;28;20329;-87
2022/01/24 03:06:07;;;;;;;27.08;14.20;;;2.80;99.90;;;;;;5107987;28;20191;-87
2022/01/24 03:08:38;;;;;;;20.45;12.55;;;2.60;99.90;;;;;;5089669;28;20234;-87
2022/01/24 03:11:05;;;;;;;18.45;11.52;;;2.70;99.90;;;;;;5106878;28;20202;-86
2022/01/24 03:13:33;;;;;;;21.95;13.93;;;2.70;99.90;;;;;;5089085;28;20194;-85
2022/01/24 03:16:03;;;;;;;23.65;11.85;;;2.50;99.90;;;;;;5089103;28;20205;-85
2022/01/24 03:18:31;;;;;;;16.58;11.40;;;2.50;99.90;;;;;;5089315;28;20194;-86
2022/01/24 03:21:00;;;;;;;22.17;11.50;;;2.60;99.90;;;;;;5105840;28;20203;-85
2022/01/24 03:23:28;;;;;;;14.98;9.50;;;2.50;99.90;;;;;;5088448;28;20206;-87
2022/01/24 03:25:56;;;;;;;20.23;11.60;;;2.50;99.90;;;;;;5105473;28;20209;-86
2022/01/24 03:28:24;;;;;;;21.60;12.27;;;2.80;99.90;;;;;;5087693;28;20222;-86
2022/01/24 03:30:53;;;;;;;18.05;12.02;;;2.70;99.90;;;;;;5105855;28;20202;-85
2022/01/24 03:33:21;;;;;;;19.98;11.93;;;2.50;99.90;;;;;;5104533;28;20199;-85
2022/01/24 03:35:49;;;;;;;17.45;10.73;;;2.40;99.90;;;;;;5089275;28;20210;-86
2022/01/24 03:38:17;;;;;;;21.90;14.15;;;2.20;99.90;;;;;;5108213;28;20259;-86
2022/01/24 03:40:44;;;;;;;21.70;11.38;;;2.30;99.90;;;;;;5106363;28;20197;-86
2022/01/24 03:43:12;;;;;;;18.67;9.35;;;2.30;99.90;;;;;;5107507;28;20198;-85
2022/01/24 03:45:45;;;;;;;20.65;11.55;;;2.20;99.90;;;;;;5106101;28;20194;-84
2022/01/24 03:50:51;;;;;;;21.73;10.48;;;2.10;99.90;;;;;;5105607;28;20204;-85
2022/01/24 03:53:19;;;;;;;22.20;11.10;;;1.90;99.90;;;;;;5087120;28;20304;-86
2022/01/24 03:55:46;;;;;;;16.02;9.85;;;1.90;99.90;;;;;;5103909;28;20182;-84
2022/01/24 03:58:13;;;;;;;22.20;11.07;;;1.80;99.90;;;;;;5104136;28;20387;-85
2022/01/24 04:00:41;;;;;;;17.42;12.45;;;1.80;99.90;;;;;;5085483;28;20197;-85
2022/01/24 04:03:10;;;;;;;18.23;11.80;;;1.80;99.90;;;;;;5103602;28;20194;-86
2022/01/24 04:05:37;;;;;;;23.02;12.75;;;2.00;99.90;;;;;;5085696;28;20243;-87
2022/01/24 04:08:05;;;;;;;24.95;12.02;;;2.10;99.90;;;;;;5102665;28;20214;-85
2022/01/24 04:10:41;;;;;;;22.95;13.20;;;2.10;99.90;;;;;;5086199;28;20265;-85
2022/01/24 04:13:23;;;;;;;20.15;11.82;;;2.10;99.90;;;;;;5103475;28;20358;-86
2022/01/24 04:18:51;;;;;;;20.65;13.38;;;2.30;99.90;;;;;;5103044;28;20197;-85
2022/01/24 04:21:27;;;;;;;21.88;14.20;;;2.20;99.90;;;;;;5104755;28;20199;-86
2022/01/24 04:24:06;;;;;;;23.83;12.40;;;2.10;99.90;;;;;;5105144;28;20205;-86
2022/01/24 04:26:35;;;;;;;24.02;14.20;;;1.90;99.90;;;;;;5106730;28;20197;-87
2022/01/24 04:29:05;;;;;;;21.45;13.45;;;2.00;99.90;;;;;;5088370;28;20369;-87
2022/01/24 04:31:33;;;;;;;28.90;14.55;;;1.80;99.90;;;;;;5088406;28;20190;-86
2022/01/24 04:34:00;;;;;;;24.75;13.85;;;1.80;99.90;;;;;;5087451;28;20205;-86
2022/01/24 04:36:28;;;;;;;24.80;14.73;;;2.00;99.90;;;;;;5105890;28;20221;-86
2022/01/24 04:38:56;;;;;;;30.05;15.90;;;2.00;99.90;;;;;;5087240;28;20206;-87
2022/01/24 04:41:29;;;;;;;27.95;15.65;;;1.80;99.90;;;;;;5105783;28;20189;-86
2022/01/24 04:54:46;;;;;;;30.52;18.38;;;2.10;99.90;;;;;;5104947;28;20196;-86
2022/01/24 04:57:22;;;;;;;28.85;17.98;;;1.90;99.90;;;;;;5104426;28;20186;-87
2022/01/24 04:59:53;;;;;;;30.67;19.52;;;1.80;99.90;;;;;;5104433;28;20287;-86
2022/01/24 05:02:22;;;;;;;27.65;16.38;;;1.90;99.90;;;;;;5070181;28;20202;-87
2022/01/24 05:04:52;;;;;;;28.70;16.77;;;1.80;99.90;;;;;;5086702;28;20218;-87
2022/01/24 05:07:20;;;;;;;30.88;19.25;;;1.60;99.90;;;;;;5125478;28;20360;-86
2022/01/24 05:21:31;;;;;;;25.90;16.20;;;2.00;99.90;;;;;;5125151;28;20225;-87
2022/01/24 05:23:58;;;;;;;23.90;14.13;;;1.80;99.90;;;;;;5125567;28;20205;-88
2022/01/24 05:26:25;;;;;;;32.22;14.70;;;1.90;99.90;;;;;;5109836;28;20237;-87
2022/01/24 05:28:53;;;;;;;33.55;15.68;;;1.80;99.90;;;;;;5127132;28;20225;-82
2022/01/24 05:31:21;;;;;;;21.73;14.50;;;1.70;99.90;;;;;;5131425;28;20205;-85
2022/01/24 05:33:49;;;;;;;23.70;14.43;;;1.70;99.90;;;;;;5127915;28;20232;-86
2022/01/24 05:36:16;;;;;;;20.75;12.75;;;1.80;99.90;;;;;;5110464;28;20216;-86
2022/01/24 05:38:44;;;;;;;27.17;13.93;;;1.80;99.90;;;;;;5106099;28;20189;-85
2022/01/24 05:41:11;;;;;;;20.02;13.20;;;1.70;99.90;;;;;;5124829;28;20189;-85
2022/01/24 05:43:38;;;;;;;22.88;12.13;;;1.60;99.90;;;;;;5106658;28;20190;-85
2022/01/24 05:46:06;;;;;;;19.40;13.05;;;1.70;99.90;;;;;;5106558;28;20189;-85
2022/01/24 05:48:33;;;;;;;24.83;12.45;;;1.70;99.90;;;;;;5106572;28;20271;-85
2022/01/24 05:51:01;;;;;;;20.25;12.20;;;1.70;99.90;;;;;;5106978;28;20361;-85
2022/01/24 05:53:28;;;;;;;19.73;12.30;;;1.70;99.90;;;;;;5124650;28;20217;-85
2022/01/24 05:55:55;;;;;;;21.85;12.40;;;1.70;99.90;;;;;;5108888;28;20200;-85
2022/01/24 05:58:23;;;;;;;26.05;12.88;;;1.70;99.90;;;;;;5111729;28;20295;-85
2022/01/24 06:00:51;;;;;;;21.95;11.45;;;1.70;99.90;;;;;;5129562;28;20213;-87
2022/01/24 06:03:20;;;;;;;17.67;11.13;;;1.80;99.90;;;;;;5111614;28;20193;-88
2022/01/24 06:05:47;;;;;;;21.10;13.18;;;1.80;99.90;;;;;;5112182;28;20184;-87
2022/01/24 06:08:15;;;;;;;17.27;11.00;;;1.70;99.90;;;;;;5129866;28;20200;-89
2022/01/24 06:10:44;;;;;;;18.15;11.88;;;1.70;99.90;;;;;;5110903;28;20255;-87
2022/01/24 06:13:11;;;;;;;20.95;12.13;;;1.60;99.90;;;;;;5124650;28;20201;-87
2022/01/24 06:15:38;;;;;;;22.35;13.82;;;1.50;99.90;;;;;;5091727;28;20190;-86
2022/01/24 06:18:06;;;;;;;22.27;12.88;;;1.40;99.90;;;;;;5108864;28;20196;-86
2022/01/24 06:20:33;;;;;;;20.20;11.50;;;1.50;99.90;;;;;;5109355;28;20194;-85
2022/01/24 06:23:00;;;;;;;17.90;12.20;;;1.60;99.90;;;;;;5108690;28;20367;-87
2022/01/24 06:25:29;;;;;;;21.23;11.95;;;1.40;99.90;;;;;;5088731;28;20505;-84
2022/01/24 06:27:56;;;;;;;17.92;12.80;;;1.50;99.90;;;;;;5106461;28;20200;-83
2022/01/24 06:30:24;;;;;;;24.98;15.30;;;1.60;99.90;;;;;;5105321;28;20248;-85
2022/01/24 06:32:52;;;;;;;18.98;13.38;;;1.40;99.90;;;;;;5107322;28;20500;-86
2022/01/24 06:35:19;;;;;;;19.73;11.82;;;1.40;99.90;;;;;;5107904;28;20190;-87
2022/01/24 06:37:47;;;;;;;19.88;13.15;;;1.40;99.90;;;;;;5090431;28;20199;-86
2022/01/24 06:40:15;;;;;;;17.13;13.15;;;1.50;99.90;;;;;;5105892;28;20222;-86
2022/01/24 06:42:43;;;;;;;20.05;12.10;;;1.60;99.90;;;;;;5091437;28;20206;-84
2022/01/24 06:45:10;;;;;;;21.08;12.40;;;1.60;99.90;;;;;;5115213;28;20537;-86
2022/01/24 06:47:41;;;;;;;20.10;12.30;;;1.70;99.90;;;;;;5106344;28;20263;-86
2022/01/24 06:50:09;;;;;;;15.63;12.40;;;1.80;99.90;;;;;;5083812;28;20241;-85
2022/01/24 06:52:37;;;;;;;18.17;10.73;;;1.70;99.90;;;;;;5100676;28;20209;-85
2022/01/24 06:55:05;;;;;;;20.20;11.35;;;1.60;99.90;;;;;;5072918;28;20196;-83
2022/01/24 06:57:33;;;;;;;17.23;10.82;;;1.70;99.90;;;;;;5102497;28;20273;-85
2022/01/24 07:00:02;;;;;;;16.98;10.30;;;1.80;99.90;;;;;;5086595;28;20219;-84
2022/01/24 07:02:29;;;;;;;16.77;10.00;;;2.00;99.90;;;;;;5105503;28;20202;-86
2022/01/24 07:04:57;;;;;;;24.75;13.15;;;2.10;99.90;;;;;;5105583;28;20410;-84
2022/01/24 07:07:24;;;;;;;19.52;12.25;;;2.20;99.90;;;;;;5105810;28;20212;-86
2022/01/24 07:09:52;;;;;;;22.52;11.80;;;2.30;99.90;;;;;;5105910;28;20241;-85
2022/01/24 07:12:20;;;;;;;31.23;12.73;;;2.30;99.90;;;;;;5105832;28;20252;-85
2022/01/24 07:14:49;;;;;;;13.30;8.88;;;2.30;99.90;;;;;;5106422;28;20285;-85
2022/01/24 07:17:31;;;;;;;21.63;12.20;;;2.10;99.90;;;;;;5074494;28;20205;-85
2022/01/24 07:19:59;;;;;;;18.05;11.20;;;2.00;99.90;;;;;;5091120;28;20213;-84
2022/01/24 07:22:26;;;;;;;22.85;12.98;;;2.00;99.90;;;;;;5097581;28;20244;-84
2022/01/24 07:24:55;;;;;;;14.75;12.45;;;2.00;99.90;;;;;;5105823;28;20266;-85
2022/01/24 07:27:23;;;;;;;21.25;11.45;;;2.10;99.90;;;;;;5104729;28;20228;-85
2022/01/24 07:29:51;;;;;;;15.68;10.38;;;2.20;99.90;;;;;;5104570;28;20289;-84
2022/01/24 07:32:18;;;;;;;20.27;10.73;;;2.30;99.90;;;;;;5105370;28;20191;-85
2022/01/24 07:34:46;;;;;;;19.10;11.48;;;2.30;99.90;;;;;;5120311;28;20212;-84
2022/01/24 07:37:13;;;;;;;18.55;10.15;;;2.10;99.90;;;;;;5104143;28;20205;-85
2022/01/24 07:39:41;;;;;;;13.00;9.90;;;2.20;99.90;;;;;;5104721;28;20514;-86
2022/01/24 07:42:16;;;;;;;18.83;10.13;;;2.30;99.90;;;;;;5104482;28;20198;-85
2022/01/24 07:44:44;;;;;;;13.38;10.00;;;2.40;99.90;;;;;;5086630;28;20205;-85
2022/01/24 07:47:12;;;;;;;16.10;11.30;;;2.40;99.90;;;;;;5093105;28;20209;-84
2022/01/24 07:49:40;;;;;;;20.70;11.07;;;2.30;99.90;;;;;;5100771;28;20222;-85
2022/01/24 07:52:07;;;;;;;17.20;11.20;;;2.20;99.90;;;;;;5086272;28;20217;-84
2022/01/24 07:54:35;;;;;;;14.48;11.15;;;2.30;99.90;;;;;;5086375;28;20269;-85
2022/01/24 07:57:03;;;;;;;13.93;9.38;;;2.30;99.90;;;;;;5087272;28;20202;-84
2022/01/24 07:59:30;;;;;;;19.08;10.48;;;2.30;99.90;;;;;;5104462;28;20209;-85
2022/01/24 08:01:58;;;;;;;17.65;11.20;;;2.40;99.90;;;;;;5104068;28;20202;-84
2022/01/24 08:04:25;;;;;;;15.38;10.25;;;2.40;99.90;;;;;;5086191;28;20223;-85
2022/01/24 08:06:53;;;;;;;18.88;10.98;;;2.60;99.90;;;;;;5103898;28;20199;-85
2022/01/24 08:09:21;;;;;;;14.45;9.15;;;2.50;99.90;;;;;;5104393;28;20248;-85
2022/01/24 08:11:48;;;;;;;19.83;10.57;;;2.50;99.90;;;;;;5104481;28;20205;-84
2022/01/24 08:14:15;;;;;;;18.35;10.20;;;2.40;99.90;;;;;;5087304;28;20182;-85
2022/01/24 08:16:43;;;;;;;22.75;11.85;;;2.50;99.90;;;;;;5104687;28;20266;-85
2022/01/24 08:19:10;;;;;;;15.90;9.35;;;2.50;99.90;;;;;;5087143;28;20197;-85
2022/01/24 08:21:38;;;;;;;11.88;9.30;;;2.70;99.90;;;;;;5089377;28;20194;-84
2022/01/24 08:24:07;;;;;;;14.73;9.15;;;2.60;99.90;;;;;;5089669;28;20202;-84
2022/01/24 08:26:35;;;;;;;20.23;12.02;;;2.80;99.90;;;;;;5089448;28;20199;-84
2022/01/24 08:29:02;;;;;;;16.00;10.55;;;2.70;99.90;;;;;;5087138;28;20194;-85
2022/01/24 08:31:30;;;;;;;14.00;10.85;;;2.50;99.90;;;;;;5087103;28;20194;-86
2022/01/24 08:33:58;;;;;;;17.42;11.07;;;2.40;99.90;;;;;;5086944;28;20195;-86
2022/01/24 08:36:25;;;;;;;17.58;10.18;;;2.50;99.90;;;;;;5105167;28;20294;-86
2022/01/24 08:38:53;;;;;;;12.10;8.55;;;2.60;99.90;;;;;;5104831;28;20187;-85
2022/01/24 08:41:28;;;;;;;11.20;9.15;;;2.70;99.90;;;;;;5086181;28;20236;-85
2022/01/24 08:44:11;;;;;;;13.32;8.80;;;2.80;99.90;;;;;;5103755;28;20206;-84
2022/01/24 08:46:41;;;;;;;22.77;10.90;;;2.90;99.90;;;;;;5104296;28;20194;-84
2022/01/24 08:49:09;;;;;;;12.85;8.32;;;3.00;99.90;;;;;;5103761;28;20265;-86
2022/01/24 08:51:36;;;;;;;11.98;8.15;;;3.00;99.90;;;;;;5103503;28;20195;-85
2022/01/24 08:54:24;;;;;;;12.90;9.60;;;3.10;99.90;;;;;;5088212;28;20205;-85
2022/01/24 08:56:52;;;;;;;11.90;8.23;;;3.10;99.90;;;;;;5103029;28;20207;-84
2022/01/24 08:59:22;;;;;;;11.90;8.27;;;3.10;99.90;;;;;;5084561;28;20196;-84
2022/01/24 09:01:50;;;;;;;15.75;8.15;;;3.10;99.90;;;;;;5084594;28;20206;-85
2022/01/24 09:04:17;;;;;;;13.85;7.22;;;3.00;99.90;;;;;;5104365;28;20480;-83
2022/01/24 09:06:45;;;;;;;15.70;9.85;;;3.10;99.90;;;;;;5085014;28;20192;-85
2022/01/24 09:09:15;;;;;;;10.93;9.02;;;3.20;99.90;;;;;;5103126;28;20322;-85
2022/01/24 09:11:42;;;;;;;13.95;10.63;;;3.30;99.90;;;;;;5103739;28;20280;-84
2022/01/24 09:14:10;;;;;;;13.07;9.48;;;3.40;99.90;;;;;;5086061;28;20195;-84
2022/01/24 09:16:38;;;;;;;11.95;9.13;;;3.60;99.90;;;;;;5086036;28;20498;-84
2022/01/24 09:19:08;;;;;;;17.83;12.25;;;3.70;99.90;;;;;;5104567;28;20281;-85
2022/01/24 09:21:36;;;;;;;27.65;18.55;;;3.90;99.90;;;;;;5105962;28;20205;-85
2022/01/24 09:24:04;;;;;;;13.20;9.75;;;4.00;99.90;;;;;;5105188;28;20200;-85
2022/01/24 09:26:33;;;;;;;20.90;12.38;;;4.10;99.90;;;;;;5086892;28;20201;-84
2022/01/24 09:29:01;;;;;;;18.30;11.63;;;4.30;99.90;;;;;;5104771;28;20265;-85
2022/01/24 09:31:28;;;;;;;13.70;9.35;;;4.20;99.90;;;;;;5107361;28;20208;-84
2022/01/24 09:33:56;;;;;;;14.68;9.88;;;4.20;99.90;;;;;;5090701;28;20187;-84
2022/01/24 09:36:24;;;;;;;14.93;9.20;;;4.10;99.90;;;;;;5108835;28;20198;-83
2022/01/24 09:38:51;;;;;;;15.70;10.93;;;4.00;99.90;;;;;;5091108;28;20201;-85
2022/01/24 09:41:20;;;;;;;17.27;10.45;;;3.90;99.90;;;;;;5109329;28;20216;-85
2022/01/24 09:43:47;;;;;;;14.20;10.80;;;3.90;99.90;;;;;;5109612;28;20208;-85
2022/01/24 09:46:15;;;;;;;15.27;10.75;;;3.80;99.90;;;;;;5091776;28;20378;-84
2022/01/24 09:48:43;;;;;;;17.88;12.15;;;3.90;99.90;;;;;;5091212;28;20197;-88
2022/01/24 09:51:11;;;;;;;19.20;12.70;;;3.90;99.90;;;;;;5092558;28;20293;-84
2022/01/24 09:53:39;;;;;;;19.05;11.20;;;3.90;99.90;;;;;;5092561;28;20188;-86
2022/01/24 09:56:08;;;;;;;19.10;12.90;;;3.90;99.90;;;;;;5091969;28;20203;-88
2022/01/24 09:58:37;;;;;;;19.58;12.57;;;4.00;99.90;;;;;;5108618;28;20208;-86
2022/01/24 10:01:07;;;;;;;20.55;14.15;;;4.10;99.90;;;;;;5108573;28;20201;-87
2022/01/24 10:03:37;;;;;;;18.38;13.27;;;4.10;99.90;;;;;;5110225;28;20191;-86
2022/01/24 10:06:11;;;;;;;19.85;13.43;;;4.20;99.90;;;;;;5109181;28;20266;-85
2022/01/24 10:08:39;;;;;;;18.80;13.35;;;4.30;99.90;;;;;;5109087;28;20201;-84
2022/01/24 10:11:08;;;;;;;16.35;12.55;;;4.30;99.90;;;;;;5108329;28;20286;-84
2022/01/24 10:16:43;;;;;;;21.27;11.55;;;4.90;99.90;;;;;;5108639;28;20229;-85
2022/01/24 10:19:20;;;;;;;20.30;12.48;;;4.80;99.90;;;;;;5092344;28;20194;-85
2022/01/24 10:22:03;;;;;;;14.57;11.95;;;4.60;99.90;;;;;;5109869;28;20213;-85
2022/01/24 10:24:53;;;;;;;21.17;15.63;;;4.60;99.90;;;;;;5090924;28;20189;-85
2022/01/24 10:27:24;;;;;;;19.70;12.15;;;4.80;99.90;;;;;;5105849;28;20204;-85
2022/01/24 10:30:03;;;;;;;23.00;11.85;;;4.60;99.90;;;;;;5106005;28;20243;-85
2022/01/24 10:32:43;;;;;;;14.63;11.48;;;4.60;99.90;;;;;;5105881;28;20384;-83
2022/01/24 10:35:35;;;;;;;18.98;12.23;;;4.70;99.90;;;;;;5087691;28;20211;-85
2022/01/24 10:41:09;;;;;;;21.45;13.10;;;4.60;99.90;;;;;;5105124;28;20221;-84
2022/01/24 10:43:39;;;;;;;19.70;13.25;;;4.80;99.90;;;;;;5088168;28;20198;-86
2022/01/24 10:46:08;;;;;;;41.15;15.18;;;4.60;99.90;;;;;;5087544;28;20217;-84
2022/01/24 10:48:41;;;;;;;25.70;16.27;;;4.70;99.90;;;;;;5105688;28;20224;-84
2022/01/24 10:51:14;;;;;;;25.27;14.88;;;4.70;99.90;;;;;;5104835;28;20220;-85
2022/01/24 10:53:46;;;;;;;26.60;16.90;;;4.80;99.90;;;;;;5088242;28;20386;-84
2022/01/24 10:56:30;;;;;;;21.45;13.75;;;4.80;99.90;;;;;;5105210;28;20194;-84
2022/01/24 10:59:13;;;;;;;20.08;14.13;;;5.20;99.90;;;;;;5105759;28;20475;-84
2022/01/24 11:01:49;;;;;;;23.55;17.02;;;5.50;99.90;;;;;;5087571;28;20368;-84
2022/01/24 11:04:18;;;;;;;24.98;14.65;;;5.60;99.90;;;;;;5105394;28;20200;-85
2022/01/24 11:06:52;;;;;;;23.42;13.68;;;5.70;99.90;;;;;;5087306;28;20269;-84
2022/01/24 11:09:31;;;;;;;25.20;15.60;;;5.90;99.90;;;;;;5106119;28;20198;-83
2022/01/24 11:12:10;;;;;;;18.55;13.73;;;5.90;99.90;;;;;;5104220;28;20197;-86
2022/01/24 11:14:47;;;;;;;27.77;15.55;;;5.80;99.90;;;;;;5104962;28;20269;-84
2022/01/24 11:17:21;;;;;;;28.40;17.35;;;5.60;99.90;;;;;;5105663;28;20213;-85
2022/01/24 11:19:56;;;;;;;55.35;30.42;;;5.70;99.90;;;;;;5105682;28;20205;-84
2022/01/24 11:22:27;;;;;;;38.30;21.05;;;5.60;99.90;;;;;;5086830;28;20273;-84
2022/01/24 11:25:08;;;;;;;27.15;14.98;;;5.30;99.90;;;;;;5104931;28;20259;-84
2022/01/24 11:27:39;;;;;;;25.15;16.48;;;5.10;99.90;;;;;;5105768;28;20196;-84
2022/01/24 11:30:20;;;;;;;23.30;14.98;;;4.80;99.90;;;;;;5087262;28;20410;-85
2022/01/24 11:33:01;;;;;;;30.50;17.70;;;4.70;99.90;;;;;;5104911;28;20260;-85
2022/01/24 11:35:38;;;;;;;29.00;17.00;;;5.00;99.90;;;;;;5087584;28;20301;-86
2022/01/24 11:38:25;;;;;;;26.80;15.23;;;4.90;99.90;;;;;;5087003;28;20193;-85
2022/01/24 11:41:01;;;;;;;22.60;14.65;;;4.70;99.90;;;;;;5105099;28;20196;-84
2022/01/24 11:43:38;;;;;;;24.27;15.18;;;4.60;99.90;;;;;;5087377;28;20197;-86
2022/01/24 11:46:41;;;;;;;22.00;15.48;;;4.80;99.90;;;;;;5087239;28;20382;-85
2022/01/24 11:49:16;;;;;;;29.13;17.75;;;4.90;99.90;;;;;;5086854;28;20262;-84
2022/01/24 11:51:51;;;;;;;27.45;14.68;;;4.90;99.90;;;;;;5086377;28;20221;-85
2022/01/24 11:57:22;;;;;;;21.13;14.55;;;5.20;99.90;;;;;;5104873;28;20208;-84
2022/01/24 11:59:52;;;;;;;25.98;15.10;;;5.20;99.90;;;;;;5087641;28;20205;-85
2022/01/24 12:02:24;;;;;;;25.10;18.25;;;5.30;99.90;;;;;;5086901;28;20288;-85
2022/01/24 12:04:53;;;;;;;26.83;15.70;;;5.40;99.90;;;;;;5088202;28;20495;-84
2022/01/24 12:07:29;;;;;;;37.03;16.40;;;5.10;99.90;;;;;;5087643;28;20202;-85
2022/01/24 12:10:36;;;;;;;21.52;14.52;;;4.80;99.90;;;;;;5087944;28;20203;-84
2022/01/24 12:13:06;;;;;;;20.80;12.77;;;4.80;99.90;;;;;;5105413;28;20221;-84
2022/01/24 12:15:37;;;;;;;17.85;14.35;;;4.80;99.90;;;;;;5087507;28;20203;-85
2022/01/24 12:18:12;;;;;;;19.33;12.63;;;4.90;99.90;;;;;;5106296;28;20261;-84
2022/01/24 12:20:42;;;;;;;34.13;19.27;;;4.90;99.90;;;;;;5106254;28;20243;-84
2022/01/24 12:23:24;;;;;;;24.90;16.45;;;5.00;99.90;;;;;;5105163;28;20229;-85
2022/01/24 12:26:14;;;;;;;27.15;18.02;;;5.20;99.90;;;;;;5090050;28;20198;-85
2022/01/24 12:28:44;;;;;;;28.88;20.02;;;5.60;99.90;;;;;;5105745;28;20198;-87
2022/01/24 12:31:47;;;;;;;25.38;17.40;;;5.70;99.90;;;;;;5086934;28;20214;-85
2022/01/24 12:34:22;;;;;;;21.50;15.55;;;5.80;99.90;;;;;;5104947;28;20201;-85
2022/01/24 12:37:04;;;;;;;22.70;13.95;;;5.40;99.90;;;;;;5104292;28;20220;-86
2022/01/24 12:39:34;;;;;;;29.38;18.58;;;5.40;99.90;;;;;;5104901;28;20387;-84
2022/01/24 12:42:11;;;;;;;42.17;23.15;;;5.40;99.90;;;;;;5104835;28;20200;-84
2022/01/24 12:47:16;;;;;;;26.45;19.60;;;5.70;99.90;;;;;;5107362;28;20212;-84
2022/01/24 12:49:46;;;;;;;21.90;15.68;;;5.90;99.90;;;;;;5105281;28;20193;-84
2022/01/24 12:52:21;;;;;;;23.90;13.15;;;6.00;99.90;;;;;;5104042;28;20194;-84
2022/01/24 12:54:58;;;;;;;22.42;14.10;;;5.90;99.90;;;;;;5086137;28;20201;-85
2022/01/24 12:57:32;;;;;;;20.98;12.38;;;5.80;99.90;;;;;;5104690;28;20198;-86
2022/01/24 13:00:10;;;;;;;22.02;14.80;;;5.90;99.90;;;;;;5105666;28;20189;-84
2022/01/24 13:02:38;;;;;;;21.30;13.40;;;5.90;99.90;;;;;;5087611;28;20259;-84
2022/01/24 13:05:21;;;;;;;21.35;14.13;;;5.90;99.90;;;;;;5107254;28;20198;-83
2022/01/24 13:07:51;;;;;;;23.10;14.52;;;6.00;99.90;;;;;;5092422;28;20227;-85
2022/01/24 13:10:22;;;;;;;22.83;13.52;;;6.10;99.90;;;;;;5109520;28;20227;-86
2022/01/24 13:13:07;;;;;;;21.27;14.60;;;6.30;99.90;;;;;;5107862;28;20208;-84
2022/01/24 13:21:22;;;;;;;28.50;16.67;;;6.00;99.90;;;;;;5108224;28;20202;-86
2022/01/24 13:23:55;;;;;;;24.33;16.75;;;5.70;99.90;;;;;;5108319;28;20205;-85
2022/01/24 13:26:23;;;;;;;24.67;16.45;;;5.60;99.90;;;;;;5091092;28;20210;-83
2022/01/24 13:28:59;;;;;;;24.85;14.30;;;5.50;99.90;;;;;;5092071;28;20203;-83
2022/01/24 13:31:26;;;;;;;23.52;18.10;;;5.20;99.90;;;;;;5110387;28;20522;-83
2022/01/24 13:33:54;;;;;;;21.67;15.23;;;5.30;99.90;;;;;;5110380;28;20224;-84
2022/01/24 13:36:23;;;;;;;25.98;15.05;;;5.40;99.90;;;;;;5091802;28;20206;-84
2022/01/24 13:38:51;;;;;;;25.92;15.70;;;5.20;99.90;;;;;;5109989;28;20196;-83
2022/01/24 13:41:23;;;;;;;24.90;16.80;;;5.60;99.90;;;;;;5092449;28;20208;-84
2022/01/24 13:43:56;;;;;;;25.75;14.70;;;5.60;99.90;;;;;;5109698;28;20189;-83
2022/01/24 13:46:39;;;;;;;28.23;15.23;;;5.50;99.90;;;;;;5109837;28;20220;-84
2022/01/24 13:49:13;;;;;;;24.80;15.65;;;5.50;99.90;;;;;;5109615;28;20357;-83
2022/01/24 13:51:46;;;;;;;23.92;14.63;;;5.50;99.90;;;;;;5091547;28;20214;-85
2022/01/24 13:54:26;;;;;;;26.65;15.50;;;5.60;99.90;;;;;;5110581;28;20192;-83
2022/01/24 13:57:04;;;;;;;22.63;12.70;;;5.70;99.90;;;;;;5110714;28;20185;-83
2022/01/24 13:59:33;;;;;;;36.60;17.48;;;5.70;99.90;;;;;;5092100;28;20189;-83
2022/01/24 14:02:02;;;;;;;25.40;15.20;;;5.60;99.90;;;;;;5092098;28;20194;-83
2022/01/24 14:04:38;;;;;;;19.25;13.95;;;5.70;99.90;;;;;;5091583;28;20484;-83
2022/01/24 14:07:09;;;;;;;29.73;17.88;;;5.50;99.90;;;;;;5109734;28;20202;-84
2022/01/24 14:09:39;;;;;;;19.45;13.45;;;5.40;99.90;;;;;;5109772;28;20205;-84
2022/01/24 14:12:18;;;;;;;19.33;13.85;;;5.50;99.90;;;;;;5090665;28;20217;-83
2022/01/24 14:15:00;;;;;;;20.92;14.43;;;5.50;99.90;;;;;;5108737;28;20193;-82
2022/01/24 14:20:16;;;;;;;28.42;16.50;;;5.80;99.90;;;;;;5108374;28;20201;-81
2022/01/24 14:22:52;;;;;;;20.90;13.57;;;5.40;99.90;;;;;;5109186;28;20208;-84
2022/01/24 14:25:31;;;;;;;20.00;13.85;;;5.40;99.90;;;;;;5090455;28;20249;-84
2022/01/24 14:28:09;;;;;;;19.45;14.73;;;5.50;99.90;;;;;;5108589;28;20216;-82
2022/01/24 14:30:42;;;;;;;20.38;13.65;;;5.50;99.90;;;;;;5108727;28;20209;-84
2022/01/24 14:33:19;;;;;;;22.25;12.80;;;5.60;99.90;;;;;;5091084;28;20273;-84
2022/01/24 14:35:57;;;;;;;19.42;13.50;;;5.80;99.90;;;;;;5091215;28;20234;-82
2022/01/24 14:38:39;;;;;;;20.80;13.85;;;5.80;99.90;;;;;;5091213;28;20211;-83
2022/01/24 14:41:14;;;;;;;23.45;13.77;;;5.80;99.90;;;;;;5090205;28;20224;-84
2022/01/24 14:46:32;;;;;;;21.85;12.93;;;5.70;99.90;;;;;;5107213;28;20198;-83
2022/01/24 14:49:03;;;;;;;23.67;14.18;;;5.60;99.90;;;;;;5107221;28;20204;-84
2022/01/24 14:51:33;;;;;;;27.25;15.20;;;5.30;99.90;;;;;;5108022;28;20217;-83
2022/01/24 14:54:04;;;;;;;22.02;14.60;;;5.30;99.90;;;;;;5108234;28;20194;-83
2022/01/24 14:56:34;;;;;;;24.55;14.88;;;5.60;99.90;;;;;;5109343;28;20196;-83
2022/01/24 14:59:02;;;;;;;23.20;15.95;;;5.60;99.90;;;;;;5110698;28;20201;-83